Terminal Aerodrome Forecast
Issued by NWS Central Illinois

Home | Current Version | Previous Version | Text Only | Print | Product List | Glossary On
Versions: 1 2 3 4 5 6 7 8 9 10 11 12 13 14 15 16 17 18 19 20 21 22 23
000
FTUS43 KILX 250600 AAA
TAFSPI
TAF AMD
KSPI 250634Z 2507/2606 29014KT P6SM -RADZ BKN010
      TEMPO 2507/2509 2SM -RA BR OVC005
     FM251200 30014G20KT P6SM SCT010
     FM251400 31014KT P6SM SKC
     FM252100 27012KT P6SM SCT250
     FM260000 24008KT P6SM SCT250=

USA.gov is the U.S. government's official web portal to all federal, state and local government web resources and services.